Aurora — WDE6368 — position and weather

sailwx.info

Track history (hours):
 
Tides and Currents Weather Stations Pressure Air Temp Water Temp Dewpoint Dewpoint Depression Visibility Wind Speed Wind Dir Waves Ship Positions

Aurora

Owner: Boston Harbor Cruises, Boston, MA. More information available from US FCC via Universal Licensing System and Coast Guard Vessel Documentation Center.

Last reported at 2017-Nov-17 17:31 UTC. Time now 2017-Nov-17 17:48 UTC.
Position N 42°23' W 071°03'.

Length 37 m.

Type: High speed craft. MMSI: 367379320.

Date/timePositionNaut miles runAvg speedWind from/ knotsBaromVisibWave heightAir tempDewpointWater temp
2017-Nov-17 17:31N 42°23' W 071°03'0 0.0
2017-Nov-17 17:01N 42°23' W 071°03'1 2.3
2017-Nov-17 16:29N 42°21' W 071°03'8 6.8
2017-Nov-17 15:21N 42°16' W 070°56'822.1
2017-Nov-17 15:01N 42°21' W 071°03'0 0.4
2017-Nov-17 14:16N 42°22' W 071°03'1 2.1
2017-Nov-17 14:00N 42°22' W 071°02'0 0.7
2017-Nov-17 13:30N 42°21' W 071°02'8 8.4
2017-Nov-17 12:36N 42°16' W 070°56'220.8
2017-Nov-17 12:30N 42°17' W 070°57'611.2
2017-Nov-17 11:59N 42°21' W 071°03'8 0.7
2017-Nov-16 23:56N 42°16' W 070°55'812.4
2017-Nov-16 23:18N 42°21' W 071°03'517.1
2017-Nov-16 23:00N 42°18' W 070°58'3 5.8
2017-Nov-16 22:29N 42°16' W 070°55'817.2
2017-Nov-16 22:00N 42°21' W 071°03'2 4.7
2017-Nov-16 21:30N 42°20' W 071°00'6 8.7
2017-Nov-16 20:50N 42°16' W 070°55'822.3
2017-Nov-16 20:30N 42°21' W 071°02'0 0.7
2017-Nov-16 20:00N 42°22' W 071°03'0 0.2
2017-Nov-16 19:30N 42°22' W 071°03'0 0.0
2017-Nov-16 19:00N 42°22' W 071°03'0 0.0
2017-Nov-16 18:30N 42°22' W 071°03'0 0.3
2017-Nov-16 17:43N 42°21' W 071°03'0 0.0
2017-Nov-16 17:30N 42°21' W 071°03'0 0.0
2017-Nov-16 16:59N 42°21' W 071°03'1 1.3
2017-Nov-16 16:31N 42°21' W 071°02'7 6.5
2017-Nov-16 15:24N 42°16' W 070°56'819.0
2017-Nov-16 15:00N 42°21' W 071°03'0 0.4
2017-Nov-16 14:23N 42°22' W 071°03'1 1.4
2017-Nov-16 14:01N 42°22' W 071°02'0 0.9
2017-Nov-16 13:30N 42°21' W 071°03'813.6
2017-Nov-16 12:53N 42°15' W 070°55'410.6
2017-Nov-16 12:30N 42°18' W 070°59'4 8.5
2017-Nov-16 12:00N 42°21' W 071°03'8 0.6
2017-Nov-15 23:57N 42°16' W 070°55'816.7
2017-Nov-15 23:29N 42°21' W 071°03'611.7
2017-Nov-15 22:59N 42°17' W 070°57'2 3.9
2017-Nov-15 22:27N 42°16' W 070°55'817.4
2017-Nov-15 22:00N 42°21' W 071°03'4 7.1
2017-Nov-15 21:28N 42°19' W 070°59'4 6.3
2017-Nov-15 20:51N 42°16' W 070°56'721.7
2017-Nov-15 20:30N 42°21' W 071°02'0 0.8
2017-Nov-15 19:59N 42°21' W 071°02'7 7.5
2017-Nov-15 18:59N 42°16' W 070°55'8 3.6
2017-Nov-15 16:46N 42°21' W 071°03'0 0.1
2017-Nov-15 16:30N 42°21' W 071°03'0 0.1
2017-Nov-15 15:57N 42°21' W 071°03'0 0.0
2017-Nov-15 15:30N 42°21' W 071°03'0 0.2
2017-Nov-15 14:12N 42°22' W 071°03'1 2.8
2017-Nov-15 14:00N 42°22' W 071°02'1 1.1
2017-Nov-15 13:29N 42°21' W 071°02'7 9.7
2017-Nov-15 12:45N 42°16' W 070°55'520.2
2017-Nov-15 12:30N 42°19' W 070°60'3 5.7
2017-Nov-15 12:00N 42°21' W 071°02'7 0.5
2017-Nov-14 23:47N 42°17' W 070°56'724.9
2017-Nov-14 23:30N 42°21' W 071°03'611.4
2017-Nov-14 22:59N 42°17' W 070°57'2 3.9
2017-Nov-14 22:26N 42°16' W 070°55'810.3
2017-Nov-14 21:38N 42°21' W 071°03'212.2
2017-Nov-14 21:31N 42°21' W 071°01'6 9.3
2017-Nov-14 20:49N 42°16' W 070°55'822.8
2017-Nov-14 20:29N 42°21' W 071°03'2 3.3
2017-Nov-14 20:00N 42°23' W 071°03'0 0.0
2017-Nov-14 19:30N 42°23' W 071°03'0 0.0
2017-Nov-14 19:01N 42°23' W 071°03'0 0.0
2017-Nov-14 17:14N 42°23' W 071°03'0 0.1
2017-Nov-14 16:56N 42°23' W 071°03'0 0.0
2017-Nov-14 16:07N 42°23' W 071°03'0 0.2
2017-Nov-14 15:55N 42°23' W 071°03'0 0.1
2017-Nov-14 15:30N 42°23' W 071°03'0 0.1
2017-Nov-14 14:58N 42°23' W 071°03'0 0.0
2017-Nov-14 14:29N 42°23' W 071°03'1 2.9
2017-Nov-14 14:00N 42°22' W 071°02'0 1.0
2017-Nov-14 13:30N 42°21' W 071°03'6 6.4
2017-Nov-14 12:33N 42°17' W 070°57'231.9
2017-Nov-14 12:30N 42°18' W 070°58'5 9.1
2017-Nov-14 12:00N 42°21' W 071°03'8 0.6
2017-Nov-13 23:56N 42°16' W 070°55'818.0
2017-Nov-13 23:30N 42°21' W 071°03'712.8
2017-Nov-13 22:56N 42°16' W 070°56'1 1.5
2017-Nov-13 22:28N 42°16' W 070°55'811.3
2017-Nov-13 21:46N 42°21' W 071°03'  
2017-Nov-10 22:15N 42°18' W 070°58'522.0
2017-Nov-10 22:01N 42°21' W 071°03'2 4.1
2017-Nov-10 21:30N 42°20' W 071°00'6 9.8
2017-Nov-10 20:52N 42°16' W 070°55'820.8
2017-Nov-10 20:29N 42°21' W 071°03'0 0.0
2017-Nov-10 16:39N 42°21' W 071°03'0 0.7
2017-Nov-10 16:30N 42°21' W 071°03'8 9.1
2017-Nov-10 15:36N 42°15' W 070°55'3 9.5
2017-Nov-10 15:18N 42°17' W 070°58'618.1
2017-Nov-10 15:00N 42°21' W 071°03'0 0.5
2017-Nov-10 14:28N 42°22' W 071°03'510.1
2017-Nov-10 14:00N 42°18' W 070°58'2 3.7
2017-Nov-10 13:21N 42°17' W 070°56'714.7
2017-Nov-10 12:52N 42°21' W 071°03'512.5
2017-Nov-10 12:30N 42°18' W 070°58'3 4.4
2017-Nov-10 11:45N 42°16' W 070°55'0 0.0
2017-Nov-09 23:59N 42°16' W 070°55'811.4
2017-Nov-09 23:16N 42°21' W 071°03'416.4
2017-Nov-09 23:00N 42°18' W 070°59'3 6.2
2017-Nov-09 22:27N 42°16' W 070°55'817.3
2017-Nov-09 22:00N 42°21' W 071°03'2 4.5
2017-Nov-09 21:30N 42°20' W 071°00'4 5.6
2017-Nov-09 20:44N 42°17' W 070°57'624.4
2017-Nov-09 20:29N 42°21' W 071°03'0 0.4
2017-Nov-09 20:00N 42°21' W 071°03'1 2.8
2017-Nov-09 19:30N 42°23' W 071°03'0 0.0
2017-Nov-09 18:55N 42°23' W 071°03'0 0.0
2017-Nov-09 18:28N 42°23' W 071°03'0 0.0
2017-Nov-09 17:59N 42°23' W 071°03'0 0.0
2017-Nov-09 16:58N 42°23' W 071°03'0 0.0
2017-Nov-09 16:18N 42°23' W 071°03'0 0.0
2017-Nov-09 16:00N 42°23' W 071°03'0 0.0
2017-Nov-09 15:25N 42°23' W 071°03'0 0.1
2017-Nov-09 15:00N 42°23' W 071°03'1 2.8
2017-Nov-09 14:30N 42°22' W 071°03'0 0.8
2017-Nov-09 14:00N 42°22' W 071°02'1 1.1
2017-Nov-09 13:30N 42°21' W 071°03'8 9.8
2017-Nov-09 12:40N 42°16' W 070°55'215.2
2017-Nov-09 12:30N 42°17' W 070°58'611.0
2017-Nov-09 11:59N 42°21' W 071°03'8 0.7
2017-Nov-08 23:59N 42°16' W 070°55'811.6
2017-Nov-08 23:18N 42°21' W 071°03'516.2
2017-Nov-08 23:00N 42°18' W 070°58'3 5.0
2017-Nov-08 22:26N 42°16' W 070°56'816.9
2017-Nov-08 21:59N 42°21' W 071°03'8 7.1
2017-Nov-08 20:53N 42°16' W 070°55'820.5
2017-Nov-08 20:30N 42°21' W 071°02'0 0.1
2017-Nov-08 20:01N 42°21' W 071°02'5 1.1
2017-Nov-08 15:13N 42°17' W 070°58'523.5
2017-Nov-08 15:00N 42°22' W 071°02'1 1.3
2017-Nov-08 14:30N 42°21' W 071°03'811.5
2017-Nov-08 13:47N 42°15' W 070°55'2 4.8
2017-Nov-08 13:22N 42°17' W 070°57'612.5
2017-Nov-08 12:52N 42°21' W 071°03'412.8
2017-Nov-08 12:31N 42°18' W 070°58'2 0.2
2017-Nov-07 23:51N 42°17' W 070°56'710.7
2017-Nov-07 23:12N 42°21' W 071°03'316.9
2017-Nov-07 23:01N 42°19' W 070°60'5 8.6
2017-Nov-07 22:26N 42°16' W 070°55'813.7
2017-Nov-07 21:51N 42°21' W 071°03'1 3.1
2017-Nov-07 21:30N 42°21' W 071°02'710.0
2017-Nov-07 20:49N 42°16' W 070°55'723.8
2017-Nov-07 20:30N 42°21' W 071°02'0 0.8
2017-Nov-07 19:59N 42°21' W 071°03'8 7.2
2017-Nov-07 18:54N 42°16' W 070°55'819.3
2017-Nov-07 18:30N 42°21' W 071°03'0 0.0
2017-Nov-07 18:00N 42°21' W 071°03'  
Track history (hours):
 
Tides and Currents Weather Stations Pressure Air Temp Water Temp Dewpoint Dewpoint Depression Visibility Wind Speed Wind Dir Waves Ship Positions

Aurora

Owner: Boston Harbor Cruises, Boston, MA. More information available from US FCC via Universal Licensing System and Coast Guard Vessel Documentation Center.

Last reported at 2017-Nov-17 17:31 UTC. Time now 2017-Nov-17 17:48 UTC.
Position N 42°23' W 071°03'.

Length 37 m.

Type: High speed craft. MMSI: 367379320.

Date/timePositionNaut miles runAvg speedWind from/ knotsBaromVisibWave heightAir tempDewpointWater temp
2017-Nov-17 17:31N 42°23' W 071°03'0 0.0
2017-Nov-17 17:01N 42°23' W 071°03'1 2.3
2017-Nov-17 16:29N 42°21' W 071°03'8 6.8
2017-Nov-17 15:21N 42°16' W 070°56'822.1
2017-Nov-17 15:01N 42°21' W 071°03'0 0.4
2017-Nov-17 14:16N 42°22' W 071°03'1 2.1
2017-Nov-17 14:00N 42°22' W 071°02'0 0.7
2017-Nov-17 13:30N 42°21' W 071°02'8 8.4
2017-Nov-17 12:36N 42°16' W 070°56'220.8
2017-Nov-17 12:30N 42°17' W 070°57'611.2
2017-Nov-17 11:59N 42°21' W 071°03'8 0.7
2017-Nov-16 23:56N 42°16' W 070°55'812.4
2017-Nov-16 23:18N 42°21' W 071°03'517.1
2017-Nov-16 23:00N 42°18' W 070°58'3 5.8
2017-Nov-16 22:29N 42°16' W 070°55'817.2
2017-Nov-16 22:00N 42°21' W 071°03'2 4.7
2017-Nov-16 21:30N 42°20' W 071°00'6 8.7
2017-Nov-16 20:50N 42°16' W 070°55'822.3
2017-Nov-16 20:30N 42°21' W 071°02'0 0.7
2017-Nov-16 20:00N 42°22' W 071°03'0 0.2
2017-Nov-16 19:30N 42°22' W 071°03'0 0.0
2017-Nov-16 19:00N 42°22' W 071°03'0 0.0
2017-Nov-16 18:30N 42°22' W 071°03'0 0.3
2017-Nov-16 17:43N 42°21' W 071°03'0 0.0
2017-Nov-16 17:30N 42°21' W 071°03'0 0.0
2017-Nov-16 16:59N 42°21' W 071°03'1 1.3
2017-Nov-16 16:31N 42°21' W 071°02'7 6.5
2017-Nov-16 15:24N 42°16' W 070°56'819.0
2017-Nov-16 15:00N 42°21' W 071°03'0 0.4
2017-Nov-16 14:23N 42°22' W 071°03'1 1.4
2017-Nov-16 14:01N 42°22' W 071°02'0 0.9
2017-Nov-16 13:30N 42°21' W 071°03'813.6
2017-Nov-16 12:53N 42°15' W 070°55'410.6
2017-Nov-16 12:30N 42°18' W 070°59'4 8.5
2017-Nov-16 12:00N 42°21' W 071°03'8 0.6
2017-Nov-15 23:57N 42°16' W 070°55'816.7
2017-Nov-15 23:29N 42°21' W 071°03'611.7
2017-Nov-15 22:59N 42°17' W 070°57'2 3.9
2017-Nov-15 22:27N 42°16' W 070°55'817.4
2017-Nov-15 22:00N 42°21' W 071°03'4 7.1
2017-Nov-15 21:28N 42°19' W 070°59'4 6.3
2017-Nov-15 20:51N 42°16' W 070°56'721.7
2017-Nov-15 20:30N 42°21' W 071°02'0 0.8
2017-Nov-15 19:59N 42°21' W 071°02'7 7.5
2017-Nov-15 18:59N 42°16' W 070°55'8 3.6
2017-Nov-15 16:46N 42°21' W 071°03'0 0.1
2017-Nov-15 16:30N 42°21' W 071°03'0 0.1
2017-Nov-15 15:57N 42°21' W 071°03'0 0.0
2017-Nov-15 15:30N 42°21' W 071°03'0 0.2
2017-Nov-15 14:12N 42°22' W 071°03'1 2.8
2017-Nov-15 14:00N 42°22' W 071°02'1 1.1
2017-Nov-15 13:29N 42°21' W 071°02'7 9.7
2017-Nov-15 12:45N 42°16' W 070°55'520.2
2017-Nov-15 12:30N 42°19' W 070°60'3 5.7
2017-Nov-15 12:00N 42°21' W 071°02'7 0.5
2017-Nov-14 23:47N 42°17' W 070°56'724.9
2017-Nov-14 23:30N 42°21' W 071°03'611.4
2017-Nov-14 22:59N 42°17' W 070°57'2 3.9
2017-Nov-14 22:26N 42°16' W 070°55'810.3
2017-Nov-14 21:38N 42°21' W 071°03'212.2
2017-Nov-14 21:31N 42°21' W 071°01'6 9.3
2017-Nov-14 20:49N 42°16' W 070°55'822.8
2017-Nov-14 20:29N 42°21' W 071°03'2 3.3
2017-Nov-14 20:00N 42°23' W 071°03'0 0.0
2017-Nov-14 19:30N 42°23' W 071°03'0 0.0
2017-Nov-14 19:01N 42°23' W 071°03'0 0.0
2017-Nov-14 17:14N 42°23' W 071°03'0 0.1
2017-Nov-14 16:56N 42°23' W 071°03'0 0.0
2017-Nov-14 16:07N 42°23' W 071°03'0 0.2
2017-Nov-14 15:55N 42°23' W 071°03'0 0.1
2017-Nov-14 15:30N 42°23' W 071°03'0 0.1
2017-Nov-14 14:58N 42°23' W 071°03'0 0.0
2017-Nov-14 14:29N 42°23' W 071°03'1 2.9
2017-Nov-14 14:00N 42°22' W 071°02'0 1.0
2017-Nov-14 13:30N 42°21' W 071°03'6 6.4
2017-Nov-14 12:33N 42°17' W 070°57'231.9
2017-Nov-14 12:30N 42°18' W 070°58'5 9.1
2017-Nov-14 12:00N 42°21' W 071°03'8 0.6
2017-Nov-13 23:56N 42°16' W 070°55'818.0
2017-Nov-13 23:30N 42°21' W 071°03'712.8
2017-Nov-13 22:56N 42°16' W 070°56'1 1.5
2017-Nov-13 22:28N 42°16' W 070°55'811.3
2017-Nov-13 21:46N 42°21' W 071°03'  
2017-Nov-10 22:15N 42°18' W 070°58'522.0
2017-Nov-10 22:01N 42°21' W 071°03'2 4.1
2017-Nov-10 21:30N 42°20' W 071°00'6 9.8
2017-Nov-10 20:52N 42°16' W 070°55'820.8
2017-Nov-10 20:29N 42°21' W 071°03'0 0.0
2017-Nov-10 16:39N 42°21' W 071°03'0 0.7
2017-Nov-10 16:30N 42°21' W 071°03'8 9.1
2017-Nov-10 15:36N 42°15' W 070°55'3 9.5
2017-Nov-10 15:18N 42°17' W 070°58'618.1
2017-Nov-10 15:00N 42°21' W 071°03'0 0.5
2017-Nov-10 14:28N 42°22' W 071°03'510.1
2017-Nov-10 14:00N 42°18' W 070°58'2 3.7
2017-Nov-10 13:21N 42°17' W 070°56'714.7
2017-Nov-10 12:52N 42°21' W 071°03'512.5
2017-Nov-10 12:30N 42°18' W 070°58'3 4.4
2017-Nov-10 11:45N 42°16' W 070°55'0 0.0
2017-Nov-09 23:59N 42°16' W 070°55'811.4
2017-Nov-09 23:16N 42°21' W 071°03'416.4
2017-Nov-09 23:00N 42°18' W 070°59'3 6.2
2017-Nov-09 22:27N 42°16' W 070°55'817.3
2017-Nov-09 22:00N 42°21' W 071°03'2 4.5
2017-Nov-09 21:30N 42°20' W 071°00'4 5.6
2017-Nov-09 20:44N 42°17' W 070°57'624.4
2017-Nov-09 20:29N 42°21' W 071°03'0 0.4
2017-Nov-09 20:00N 42°21' W 071°03'1 2.8
2017-Nov-09 19:30N 42°23' W 071°03'0 0.0
2017-Nov-09 18:55N 42°23' W 071°03'0 0.0
2017-Nov-09 18:28N 42°23' W 071°03'0 0.0
2017-Nov-09 17:59N 42°23' W 071°03'0 0.0
2017-Nov-09 16:58N 42°23' W 071°03'0 0.0
2017-Nov-09 16:18N 42°23' W 071°03'0 0.0
2017-Nov-09 16:00N 42°23' W 071°03'0 0.0
2017-Nov-09 15:25N 42°23' W 071°03'0 0.1
2017-Nov-09 15:00N 42°23' W 071°03'1 2.8
2017-Nov-09 14:30N 42°22' W 071°03'0 0.8
2017-Nov-09 14:00N 42°22' W 071°02'1 1.1
2017-Nov-09 13:30N 42°21' W 071°03'8 9.8
2017-Nov-09 12:40N 42°16' W 070°55'215.2
2017-Nov-09 12:30N 42°17' W 070°58'611.0
2017-Nov-09 11:59N 42°21' W 071°03'8 0.7
2017-Nov-08 23:59N 42°16' W 070°55'811.6
2017-Nov-08 23:18N 42°21' W 071°03'516.2
2017-Nov-08 23:00N 42°18' W 070°58'3 5.0
2017-Nov-08 22:26N 42°16' W 070°56'816.9
2017-Nov-08 21:59N 42°21' W 071°03'8 7.1
2017-Nov-08 20:53N 42°16' W 070°55'820.5
2017-Nov-08 20:30N 42°21' W 071°02'0 0.1
2017-Nov-08 20:01N 42°21' W 071°02'5 1.1
2017-Nov-08 15:13N 42°17' W 070°58'523.5
2017-Nov-08 15:00N 42°22' W 071°02'1 1.3
2017-Nov-08 14:30N 42°21' W 071°03'811.5
2017-Nov-08 13:47N 42°15' W 070°55'2 4.8
2017-Nov-08 13:22N 42°17' W 070°57'612.5
2017-Nov-08 12:52N 42°21' W 071°03'412.8
2017-Nov-08 12:31N 42°18' W 070°58'2 0.2
2017-Nov-07 23:51N 42°17' W 070°56'710.7
2017-Nov-07 23:12N 42°21' W 071°03'316.9
2017-Nov-07 23:01N 42°19' W 070°60'5 8.6
2017-Nov-07 22:26N 42°16' W 070°55'813.7
2017-Nov-07 21:51N 42°21' W 071°03'1 3.1
2017-Nov-07 21:30N 42°21' W 071°02'710.0
2017-Nov-07 20:49N 42°16' W 070°55'723.8
2017-Nov-07 20:30N 42°21' W 071°02'0 0.8
2017-Nov-07 19:59N 42°21' W 071°03'8 7.2
2017-Nov-07 18:54N 42°16' W 070°55'819.3
2017-Nov-07 18:30N 42°21' W 071°03'0 0.0
2017-Nov-07 18:00N 42°21' W 071°03'  

Dump ship's entire track history